Time;durP1;ratioP1;P1;durP2;ratioP2;P2;SDS_P1;SDS_P2;PMS_P1;PMS_P2;Temp;Humidity;BMP_temperature;BMP_pressure;BME280_temperature;BME280_humidity;BME280_pressure;Samples;Min_cycle;Max_cycle;Signal;HPM_P1;HPM_P2
2022/08/07 00:01:03;;;;;;;3.67;1.23;;;;;;;14.59;85.29;100785.38;4162905;28;20330;-67
2022/08/07 00:03:50;;;;;;;3.70;1.50;;;;;;;14.54;85.42;100783.19;4165107;28;20524;-64
2022/08/07 00:06:16;;;;;;;7.03;1.53;;;;;;;14.45;85.49;100780.59;4159367;28;21286;-67
2022/08/07 00:08:45;;;;;;;4.13;1.40;;;;;;;14.46;85.16;100782.28;4169398;28;20238;-66
2022/08/07 00:11:13;;;;;;;4.23;1.30;;;;;;;14.43;85.63;100787.97;4163858;28;20233;-65
2022/08/07 00:13:46;;;;;;;3.67;1.40;;;;;;;14.26;86.21;100793.25;4161020;28;23046;-66
2022/08/07 00:16:13;;;;;;;4.07;1.20;;;;;;;14.25;86.41;100783.53;4167030;28;20280;-68
2022/08/07 00:18:42;;;;;;;3.63;1.23;;;;;;;14.22;86.39;100791.06;4173893;28;22248;-66
2022/08/07 00:21:09;;;;;;;6.53;1.17;;;;;;;14.26;86.29;100789.75;4171358;28;22160;-65
2022/08/07 00:23:56;;;;;;;3.80;1.27;;;;;;;14.28;86.34;100788.56;4165563;28;20340;-65
2022/08/07 00:26:22;;;;;;;5.07;1.20;;;;;;;14.18;86.82;100801.22;4155032;28;21753;-66
2022/08/07 00:29:09;;;;;;;6.27;1.10;;;;;;;14.11;87.34;100794.81;4164349;28;20296;-64
2022/08/07 00:31:38;;;;;;;7.10;1.67;;;;;;;14.19;86.82;100797.56;4172543;28;20238;-67
2022/08/07 00:34:08;;;;;;;6.90;1.50;;;;;;;14.06;87.63;100794.47;4163108;28;20238;-65
2022/08/07 00:36:38;;;;;;;7.13;2.00;;;;;;;14.00;88.09;100792.41;4168043;28;20243;-67
2022/08/07 00:39:10;;;;;;;4.63;1.47;;;;;;;13.93;88.17;100798.44;4169589;28;20249;-67
2022/08/07 00:41:56;;;;;;;6.30;1.60;;;;;;;13.87;88.61;100791.00;4170481;28;20241;-66
2022/08/07 00:44:30;;;;;;;4.53;1.60;;;;;;;13.92;89.30;100795.91;4171729;28;20308;-65
2022/08/07 00:46:59;;;;;;;6.07;1.97;;;;;;;13.89;89.27;100797.06;4164707;28;21217;-67
2022/08/07 00:49:27;;;;;;;5.40;1.63;;;;;;;13.81;89.22;100799.66;4147876;28;20281;-66
2022/08/07 00:52:13;;;;;;;3.97;1.60;;;;;;;13.74;89.71;100798.59;4165591;28;20268;-65
2022/08/07 00:54:45;;;;;;;2.70;1.33;;;;;;;13.79;89.50;100790.97;4161887;28;20431;-67
2022/08/07 00:57:21;;;;;;;4.60;1.50;;;;;;;13.69;90.19;100795.56;4168069;28;21426;-66
2022/08/07 00:59:48;;;;;;;2.73;1.50;;;;;;;13.58;90.90;100791.34;4171519;28;20230;-68
2022/08/07 01:02:14;;;;;;;7.83;1.73;;;;;;;13.62;90.94;100794.53;4167524;28;20611;-64
2022/08/07 01:04:55;;;;;;;6.47;1.50;;;;;;;13.67;90.49;100794.88;4164127;28;22388;-66
2022/08/07 01:07:25;;;;;;;5.37;1.30;;;;;;;13.56;91.13;100795.16;4171432;28;20238;-67
2022/08/07 01:09:53;;;;;;;6.03;1.53;;;;;;;13.55;91.22;100796.13;4159601;28;21823;-66
2022/08/07 01:12:37;;;;;;;9.33;1.60;;;;;;;13.46;91.84;100798.75;4174735;28;20268;-67
2022/08/07 01:15:05;;;;;;;10.17;1.67;;;;;;;13.45;92.27;100796.25;4167401;28;22087;-66
2022/08/07 01:17:37;;;;;;;8.90;1.80;;;;;;;13.41;92.14;100795.69;4161390;28;20227;-65
2022/08/07 01:20:12;;;;;;;5.53;1.67;;;;;;;13.38;92.55;100793.34;4161648;28;23099;-65
2022/08/07 01:22:43;;;;;;;3.90;1.70;;;;;;;13.34;92.69;100791.97;4155732;28;20459;-66
2022/08/07 01:25:30;;;;;;;4.33;1.47;;;;;;;13.37;92.81;100791.66;4172551;28;20873;-67
2022/08/07 01:28:17;;;;;;;3.97;1.70;;;;;;;13.43;92.24;100799.06;4171391;28;20340;-66
2022/08/07 01:30:45;;;;;;;6.80;1.83;;;;;;;13.36;92.65;100792.66;4151781;28;21132;-65
2022/08/07 01:33:12;;;;;;;4.97;1.60;;;;;;;13.35;92.96;100796.31;4166822;28;20241;-68
2022/08/07 01:35:39;;;;;;;5.17;1.77;;;;;;;13.32;92.97;100799.28;4163446;28;22421;-66
2022/08/07 01:38:21;;;;;;;4.53;1.70;;;;;;;13.27;93.04;100797.09;4170990;28;20235;-66
2022/08/07 01:40:57;;;;;;;5.47;1.57;;;;;;;13.26;93.03;100797.22;4153849;28;20300;-65
2022/08/07 01:43:25;;;;;;;4.70;1.47;;;;;;;13.24;93.17;100801.88;4163113;28;21134;-65
2022/08/07 01:46:00;;;;;;;5.70;1.80;;;;;;;13.24;93.92;100796.53;4160784;28;25621;-68
2022/08/07 01:48:27;;;;;;;6.67;1.70;;;;;;;13.15;94.00;100797.44;4172016;28;20305;-65
2022/08/07 01:50:59;;;;;;;9.20;1.73;;;;;;;13.13;94.00;100800.25;4156958;28;20242;-66
2022/08/07 01:53:49;;;;;;;6.53;1.80;;;;;;;13.05;94.99;100793.00;4165293;28;20235;-65
2022/08/07 01:56:48;;;;;;;2.93;1.80;;;;;;;12.98;95.56;100786.59;4165415;28;20293;-66
2022/08/07 01:59:25;;;;;;;7.33;2.20;;;;;;;13.02;95.58;100785.31;4149351;28;20245;-66
2022/08/07 02:02:03;;;;;;;8.27;2.60;;;;;;;12.83;96.55;100788.09;4158872;28;20749;-64
2022/08/07 02:05:01;;;;;;;5.23;2.20;;;;;;;12.91;96.97;100785.53;4155210;28;20345;-64
2022/08/07 02:07:35;;;;;;;6.43;2.27;;;;;;;12.87;97.42;100787.66;4142208;28;20250;-65
2022/08/07 02:10:20;;;;;;;4.57;2.00;;;;;;;12.79;97.46;100784.91;4147156;28;20273;-65
2022/08/07 02:12:48;;;;;;;6.03;1.90;;;;;;;12.75;98.07;100790.69;4162299;28;20267;-65
2022/08/07 02:15:21;;;;;;;3.17;1.77;;;;;;;12.76;98.41;100781.69;4125832;28;20258;-65
2022/08/07 02:17:48;;;;;;;7.67;2.20;;;;;;;12.72;98.37;100783.84;4160574;28;21656;-64
2022/08/07 02:20:18;;;;;;;7.73;2.03;;;;;;;12.71;99.34;100784.81;4143468;28;20396;-65
2022/08/07 02:22:52;;;;;;;4.30;1.80;;;;;;;12.68;99.28;100785.13;4152868;28;21550;-65
2022/08/07 02:25:21;;;;;;;5.67;1.93;;;;;;;12.66;99.68;100779.91;4151989;28;22696;-67
2022/08/07 02:28:09;;;;;;;6.10;1.90;;;;;;;12.59;100.00;100781.50;4134103;28;20586;-64
2022/08/07 02:30:38;;;;;;;8.00;2.40;;;;;;;12.55;100.00;100781.94;4141619;28;22170;-66
2022/08/07 02:33:05;;;;;;;7.03;2.30;;;;;;;12.58;100.00;100782.50;4154080;28;22590;-65
2022/08/07 02:35:36;;;;;;;5.23;2.10;;;;;;;12.50;100.00;100782.41;4153417;28;20243;-64
2022/08/07 02:38:27;;;;;;;7.93;2.20;;;;;;;12.49;100.00;100786.06;4137443;28;21235;-66
2022/08/07 02:40:59;;;;;;;6.70;2.10;;;;;;;12.47;100.00;100782.69;4144160;28;20240;-65
2022/08/07 02:43:29;;;;;;;4.00;1.63;;;;;;;12.41;100.00;100784.16;4146803;29;22458;-65
2022/08/07 02:45:57;;;;;;;7.90;2.50;;;;;;;12.40;100.00;100782.44;4147820;28;23690;-64
2022/08/07 02:48:29;;;;;;;3.57;2.10;;;;;;;12.40;100.00;100781.63;4143760;28;20227;-65
2022/08/07 02:50:58;;;;;;;7.63;2.20;;;;;;;12.42;100.00;100785.81;4158651;29;21137;-66
2022/08/07 02:53:27;;;;;;;10.53;2.20;;;;;;;12.39;100.00;100787.97;4151576;28;20722;-66
2022/08/07 02:55:55;;;;;;;9.43;2.60;;;;;;;12.23;100.00;100794.75;4143795;28;23296;-64
2022/08/07 02:58:31;;;;;;;7.90;2.77;;;;;;;12.24;100.00;100785.78;4144886;29;22834;-67
2022/08/07 03:00:59;;;;;;;7.17;2.60;;;;;;;12.19;100.00;100790.69;4138832;29;20255;-67
2022/08/07 03:03:29;;;;;;;8.83;2.37;;;;;;;12.20;100.00;100787.06;4153159;28;20302;-67
2022/08/07 03:06:16;;;;;;;4.90;2.20;;;;;;;12.15;100.00;100794.66;4149632;28;20251;-65
2022/08/07 03:09:00;;;;;;;5.50;2.40;;;;;;;12.14;100.00;100806.31;4164704;28;20407;-67
2022/08/07 03:11:27;;;;;;;5.43;2.57;;;;;;;12.08;100.00;100798.91;4171434;28;20921;-65
2022/08/07 03:13:58;;;;;;;7.33;2.50;;;;;;;12.13;100.00;100799.31;4164157;28;20318;-66
2022/08/07 03:16:29;;;;;;;4.20;2.00;;;;;;;12.14;100.00;100803.63;4162688;28;20302;-66
2022/08/07 03:18:57;;;;;;;11.73;2.53;;;;;;;12.11;100.00;100806.59;4162939;28;26197;-66
2022/08/07 03:21:24;;;;;;;4.57;2.37;;;;;;;12.11;100.00;100806.59;4167435;28;20234;-67
2022/08/07 03:23:53;;;;;;;7.40;2.40;;;;;;;12.12;100.00;100800.28;4150527;28;21038;-65
2022/08/07 03:26:41;;;;;;;9.47;2.80;;;;;;;12.10;100.00;100796.06;4199402;28;20395;-66
2022/08/07 03:29:17;;;;;;;5.57;2.73;;;;;;;12.17;100.00;100799.84;4190120;28;20366;-66
2022/08/07 03:31:47;;;;;;;11.43;3.00;;;;;;;12.19;100.00;100805.88;4223377;28;20250;-65
2022/08/07 03:34:16;;;;;;;4.90;2.87;;;;;;;12.20;100.00;100795.06;4223824;28;20712;-66
2022/08/07 03:36:44;;;;;;;13.67;3.20;;;;;;;12.17;100.00;100800.66;4238948;28;20226;-63
2022/08/07 03:39:14;;;;;;;8.67;3.40;;;;;;;12.18;100.00;100806.88;4272204;28;20641;-66
2022/08/07 03:41:42;;;;;;;9.13;3.10;;;;;;;12.17;100.00;100800.66;4255617;28;20247;-65
2022/08/07 03:44:19;;;;;;;6.73;3.10;;;;;;;12.23;100.00;100802.75;4167220;28;21171;-65
2022/08/07 03:46:57;;;;;;;8.27;3.00;;;;;;;12.23;100.00;100801.94;4171089;28;21252;-65
2022/08/07 03:49:41;;;;;;;7.00;3.10;;;;;;;12.25;100.00;100810.63;4198872;28;20324;-64
2022/08/07 03:52:20;;;;;;;8.50;3.10;;;;;;;12.30;100.00;100807.53;4197262;28;20238;-66
2022/08/07 03:54:51;;;;;;;8.93;3.00;;;;;;;12.26;100.00;100812.28;4176094;28;21275;-65
2022/08/07 03:57:24;;;;;;;10.73;3.50;;;;;;;12.21;100.00;100810.06;4170727;28;20325;-67
2022/08/07 04:00:12;;;;;;;9.10;3.27;;;;;;;12.22;100.00;100811.75;4175816;28;20242;-64
2022/08/07 04:02:41;;;;;;;8.27;3.20;;;;;;;12.29;100.00;100806.69;4178419;28;20257;-65
2022/08/07 04:05:13;;;;;;;7.23;3.00;;;;;;;12.36;100.00;100806.91;4214591;28;20239;-65
2022/08/07 04:07:46;;;;;;;8.13;2.77;;;;;;;12.39;100.00;100817.31;4200563;28;20237;-68
2022/08/07 04:10:14;;;;;;;10.07;3.37;;;;;;;12.37;100.00;100814.78;4172787;28;20305;-65
2022/08/07 04:12:46;;;;;;;4.80;2.80;;;;;;;12.30;100.00;100818.19;4189012;28;20379;-65
2022/08/07 04:15:13;;;;;;;7.83;2.83;;;;;;;12.29;100.00;100813.84;4197848;28;20283;-66
2022/08/07 04:17:41;;;;;;;7.50;2.57;;;;;;;12.36;100.00;100822.94;4177732;28;20233;-66
2022/08/07 04:20:29;;;;;;;10.13;2.87;;;;;;;12.44;100.00;100821.22;4167030;28;25621;-66
2022/08/07 04:22:57;;;;;;;6.53;2.90;;;;;;;12.34;100.00;100824.91;4167022;28;24131;-65
2022/08/07 04:25:28;;;;;;;9.10;2.57;;;;;;;12.35;100.00;100827.44;4148916;28;21682;-67
2022/08/07 04:27:54;;;;;;;8.13;2.67;;;;;;;12.46;100.00;100829.09;4173480;28;25544;-65
2022/08/07 04:30:25;;;;;;;4.57;2.50;;;;;;;12.57;100.00;100828.03;4172772;28;20589;-65
2022/08/07 04:33:10;;;;;;;4.97;2.43;;;;;;;12.72;100.00;100831.06;4183539;28;20242;-66
2022/08/07 04:35:44;;;;;;;10.03;2.60;;;;;;;12.73;100.00;100830.06;4178302;28;21594;-65
2022/08/07 04:38:16;;;;;;;6.03;2.30;;;;;;;12.78;100.00;100830.44;4167436;28;20254;-65
2022/08/07 04:40:44;;;;;;;7.13;2.73;;;;;;;12.87;100.00;100842.91;4161950;28;20231;-65
2022/08/07 04:43:26;;;;;;;11.37;2.03;;;;;;;12.96;100.00;100838.50;4191552;28;20314;-65
2022/08/07 04:46:24;;;;;;;5.90;2.30;;;;;;;13.01;100.00;100845.06;4170286;28;20239;-66
2022/08/07 04:49:08;;;;;;;7.57;2.30;;;;;;;13.03;100.00;100848.44;4196138;28;20238;-66
2022/08/07 04:52:02;;;;;;;6.70;2.00;;;;;;;13.07;100.00;100848.97;4169070;28;23377;-64
2022/08/07 04:54:54;;;;;;;4.03;1.90;;;;;;;13.10;99.25;100848.66;4159248;28;20243;-64
2022/08/07 04:58:03;;;;;;;8.17;2.20;;;;;;;13.12;99.75;100853.88;4191937;28;20234;-64
2022/08/07 05:00:57;;;;;;;5.33;1.80;;;;;;;13.17;99.38;100856.91;4108788;29;20230;-66
2022/08/07 05:03:30;;;;;;;7.80;2.03;;;;;;;13.22;99.47;100862.66;4165829;28;23561;-65
2022/08/07 05:06:23;;;;;;;5.67;2.00;;;;;;;13.29;99.23;100864.59;4170362;28;20432;-65
2022/08/07 05:09:02;;;;;;;4.73;1.93;;;;;;;13.38;98.97;100867.34;4179822;28;20226;-64
2022/08/07 05:11:34;;;;;;;3.83;1.80;;;;;;;13.42;98.96;100869.56;4156985;28;20260;-66
2022/08/07 05:14:27;;;;;;;6.70;2.03;;;;;;;13.48;96.91;100879.63;4165892;28;20250;-65
2022/08/07 05:17:14;;;;;;;10.43;2.20;;;;;;;13.58;97.05;100884.06;4157796;28;20240;-66
2022/08/07 05:20:02;;;;;;;7.53;1.70;;;;;;;13.67;96.01;100883.13;4165335;28;21058;-67
2022/08/07 05:22:36;;;;;;;3.77;1.53;;;;;;;13.76;95.33;100887.56;4167915;28;21897;-67
2022/08/07 05:25:03;;;;;;;5.00;1.60;;;;;;;13.84;94.62;100886.81;4158824;28;20249;-66
2022/08/07 05:27:38;;;;;;;5.20;1.77;;;;;;;13.91;94.52;100894.06;4173276;28;21573;-66
2022/08/07 05:30:26;;;;;;;7.73;1.47;;;;;;;13.94;92.52;100888.38;4164007;28;20235;-67
2022/08/07 05:33:00;;;;;;;6.50;2.03;;;;;;;14.02;91.51;100889.44;4165614;28;20242;-63
2022/08/07 05:35:30;;;;;;;4.83;1.80;;;;;;;14.09;90.94;100894.03;4170756;28;20314;-65
2022/08/07 05:38:07;;;;;;;3.67;1.50;;;;;;;14.23;91.86;100897.94;4153367;28;22211;-64
2022/08/07 05:40:36;;;;;;;7.03;1.70;;;;;;;14.29;90.47;100900.00;4143972;28;21762;-66
2022/08/07 05:43:16;;;;;;;5.57;1.87;;;;;;;14.38;89.64;100898.22;4147777;28;20244;-73
2022/08/07 05:45:44;;;;;;;3.67;1.83;;;;;;;14.47;91.18;100899.09;4158813;28;20306;-73
2022/08/07 05:48:14;;;;;;;5.80;1.63;;;;;;;14.57;88.09;100902.53;4169267;28;20241;-71
2022/08/07 05:50:42;;;;;;;8.30;1.80;;;;;;;14.65;86.98;100894.53;4181726;28;20322;-73
2022/08/07 05:53:09;;;;;;;5.23;1.70;;;;;;;14.73;86.30;100907.16;4170088;28;20344;-72
2022/08/07 05:55:56;;;;;;;3.87;1.53;;;;;;;14.82;85.15;100891.91;4203712;28;20281;-73
2022/08/07 05:58:28;;;;;;;5.67;1.57;;;;;;;15.19;82.50;100899.59;4165243;29;20595;-75
2022/08/07 06:01:04;;;;;;;4.93;1.30;;;;;;;15.57;80.90;100900.84;4167788;28;20428;-72
2022/08/07 06:03:35;;;;;;;4.47;1.30;;;;;;;16.96;72.60;100912.41;4156989;28;23643;-71
2022/08/07 06:06:22;;;;;;;4.53;1.27;;;;;;;18.27;66.82;100919.56;4171894;28;20305;-73
2022/08/07 06:08:56;;;;;;;3.87;0.97;;;;;;;19.98;60.29;100921.88;4228574;28;20417;-72
2022/08/07 06:11:23;;;;;;;3.73;1.43;;;;;;;21.65;54.41;100939.03;4169588;28;20246;-71
2022/08/07 06:13:51;;;;;;;4.47;1.00;;;;;;;23.26;46.69;100946.78;4170249;28;20239;-72
2022/08/07 06:16:38;;;;;;;4.90;1.27;;;;;;;23.97;43.04;100947.63;4179356;28;21583;-74
2022/08/07 06:19:05;;;;;;;5.70;1.20;;;;;;;23.57;41.18;100947.88;4166761;28;20249;-71
2022/08/07 06:21:33;;;;;;;2.13;0.90;;;;;;;24.54;40.00;100947.59;4167779;28;20400;-74
2022/08/07 06:24:20;;;;;;;2.93;0.77;;;;;;;24.57;39.12;100947.13;4174913;28;22187;-75
2022/08/07 06:27:07;;;;;;;5.40;1.10;;;;;;;24.98;39.50;100953.78;4176018;28;20372;-66
2022/08/07 06:29:35;;;;;;;2.63;0.83;;;;;;;26.36;36.38;100965.66;4170449;28;21949;-67
2022/08/07 06:32:04;;;;;;;2.87;0.80;;;;;;;27.61;33.77;100968.88;4158706;28;21882;-66
2022/08/07 06:34:31;;;;;;;5.47;1.00;;;;;;;28.35;31.01;100965.22;4170136;28;20277;-65
2022/08/07 06:36:58;;;;;;;4.70;0.80;;;;;;;28.97;29.56;100973.25;4178436;28;23591;-63
2022/08/07 06:39:28;;;;;;;3.27;0.80;;;;;;;28.26;29.82;100972.19;4168986;28;20230;-68
2022/08/07 06:42:22;;;;;;;3.60;0.70;;;;;;;29.44;27.59;100980.97;4173451;28;20731;-64
2022/08/07 06:45:00;;;;;;;2.67;0.80;;;;;;;29.83;27.16;100983.59;4183588;28;20615;-65
2022/08/07 06:47:27;;;;;;;6.90;0.80;;;;;;;28.75;27.88;100975.13;4155181;28;20242;-66
2022/08/07 06:50:13;;;;;;;3.70;0.70;;;;;;;30.18;26.70;100979.50;4170819;28;20459;-63
2022/08/07 06:52:47;;;;;;;4.27;0.83;;;;;;;29.95;25.11;100982.59;4167968;28;20235;-64
2022/08/07 06:55:21;;;;;;;5.37;0.80;;;;;;;29.66;25.53;100985.56;4165490;28;20278;-65
2022/08/07 06:58:10;;;;;;;3.73;0.60;;;;;;;30.17;25.38;100991.56;4157299;28;20234;-64
2022/08/07 07:00:39;;;;;;;5.93;0.80;;;;;;;30.52;24.55;100986.63;4169122;28;20294;-66
2022/08/07 07:03:08;;;;;;;5.13;0.88;;;;;;;31.82;22.96;100994.06;4164892;28;20355;-65
2022/08/07 07:05:40;;;;;;;2.25;0.80;;;;;;;33.10;21.40;101004.13;4168655;28;24812;-66
2022/08/07 07:08:28;;;;;;;2.72;0.82;;;;;;;31.62;22.65;100988.50;4162136;28;20239;-65
2022/08/07 07:10:59;;;;;;;4.97;1.00;;;;;;;30.35;24.47;100975.81;4163756;28;20237;-67
2022/08/07 07:13:40;;;;;;;3.10;0.75;;;;;;;31.16;22.88;100985.59;4172455;28;20658;-65
2022/08/07 07:16:30;;;;;;;5.00;1.08;;;;;;;30.74;22.76;100981.78;4174158;28;20241;-66
2022/08/07 07:19:03;;;;;;;2.17;0.60;;;;;;;30.36;22.89;100977.44;4159356;28;20272;-67
2022/08/07 07:21:51;;;;;;;3.23;0.70;;;;;;;31.28;22.35;100983.44;4179521;28;20456;-66
2022/08/07 07:24:40;;;;;;;3.67;0.80;;;;;;;30.97;22.24;100985.25;4187311;28;21198;-67
2022/08/07 07:27:14;;;;;;;4.65;0.80;;;;;;;31.75;21.54;100996.25;4171338;28;20310;-65
2022/08/07 07:29:44;;;;;;;4.20;0.63;;;;;;;32.87;19.63;100992.59;4171789;28;20232;-66
2022/08/07 07:32:37;;;;;;;4.63;1.10;;;;;;;32.08;21.51;100977.59;4184599;28;20226;-66
2022/08/07 07:35:04;;;;;;;4.70;0.90;;;;;;;31.72;22.12;100983.00;4168537;28;20620;-66
2022/08/07 07:37:33;;;;;;;2.72;0.90;;;;;;;31.54;21.71;100976.94;4184120;28;20468;-67
2022/08/07 07:40:17;;;;;;;4.20;1.10;;;;;;;32.21;20.72;100979.75;4164615;28;21913;-65
2022/08/07 07:42:46;;;;;;;4.00;0.95;;;;;;;32.13;20.68;100980.31;4151731;28;20246;-67
2022/08/07 07:45:25;;;;;;;3.07;1.10;;;;;;;32.61;20.75;100977.25;4161398;28;20245;-65
2022/08/07 07:48:15;;;;;;;3.95;0.88;;;;;;;30.60;21.99;100966.88;4172028;28;20412;-66
2022/08/07 07:51:02;;;;;;;2.50;0.70;;;;;;;28.60;25.22;100959.31;4161704;28;20233;-65
2022/08/07 07:53:40;;;;;;;4.80;1.00;;;;;;;28.50;25.88;100957.28;4173885;28;20323;-64
2022/08/07 07:56:18;;;;;;;3.83;0.77;;;;;;;27.15;27.50;100948.81;4175824;28;20280;-65
2022/08/07 07:58:58;;;;;;;3.43;0.93;;;;;;;25.18;30.46;100931.78;4168321;28;22352;-63
2022/08/07 08:01:26;;;;;;;3.83;1.00;;;;;;;24.30;32.03;100919.31;4168874;28;21413;-65
2022/08/07 08:04:13;;;;;;;2.87;0.80;;;;;;;23.87;33.42;100915.50;4189094;28;20241;-64
2022/08/07 08:06:42;;;;;;;2.53;0.80;;;;;;;23.73;34.88;100914.72;4184650;28;21342;-65
2022/08/07 08:09:19;;;;;;;5.03;1.20;;;;;;;23.47;34.54;100912.19;4178744;28;20248;-64
2022/08/07 08:11:48;;;;;;;3.27;0.77;;;;;;;22.63;34.03;100914.81;4166504;28;20251;-64
2022/08/07 08:14:34;;;;;;;4.47;0.80;;;;;;;22.05;35.10;100910.06;4167197;28;20229;-67
2022/08/07 08:17:04;;;;;;;5.23;0.50;;;;;;;22.46;34.65;100914.47;4165982;28;21134;-70
2022/08/07 08:19:53;;;;;;;4.70;0.70;;;;;;;23.28;33.24;100922.13;4170514;28;20240;-65
2022/08/07 08:28:20;;;;;;;1.67;0.60;;;;;;;22.49;34.71;100907.78;4177240;28;20492;-64
2022/08/07 08:31:06;;;;;;;3.40;0.87;;;;;;;22.36;34.04;100907.78;4193798;28;20812;-69
2022/08/07 08:33:41;;;;;;;3.10;0.80;;;;;;;22.51;35.07;100903.81;4177786;28;25522;-63
2022/08/07 08:36:15;;;;;;;2.67;0.97;;;;;;;22.72;35.20;100910.84;4180961;28;21020;-61
2022/08/07 08:38:43;;;;;;;1.33;0.67;;;;;;;22.76;33.86;100912.09;4173025;28;20328;-64
2022/08/07 08:41:18;;;;;;;3.37;1.03;;;;;;;22.85;33.83;100911.84;4215782;28;20245;-66
2022/08/07 08:44:02;;;;;;;1.80;0.70;;;;;;;21.61;37.92;100900.69;4216429;28;20824;-62
2022/08/07 08:46:33;;;;;;;3.03;0.90;;;;;;;21.80;37.46;100899.06;4182639;28;25723;-63
2022/08/07 08:49:16;;;;;;;2.23;0.80;;;;;;;22.25;36.15;100903.88;4211092;28;20367;-63
2022/08/07 08:52:04;;;;;;;3.27;0.80;;;;;;;22.66;34.87;100914.41;4187077;28;20657;-64
2022/08/07 08:54:54;;;;;;;3.43;0.80;;;;;;;22.83;34.60;100917.50;4196203;28;20388;-61
2022/08/07 08:57:36;;;;;;;2.33;0.67;;;;;;;22.59;33.97;100913.56;4194376;28;20230;-65
2022/08/07 09:00:07;;;;;;;2.13;0.70;;;;;;;22.64;34.38;100918.38;4190949;28;20233;-62
2022/08/07 09:02:56;;;;;;;2.40;0.60;;;;;;;22.15;34.38;100906.97;4190044;28;20241;-63
2022/08/07 09:06:00;;;;;;;2.40;0.83;;;;;;;22.51;35.57;100909.22;4181724;28;20888;-66
2022/08/07 09:08:56;;;;;;;5.93;1.00;;;;;;;22.38;33.79;100900.28;4168820;29;20251;-63
2022/08/07 09:11:31;;;;;;;1.47;0.70;;;;;;;22.37;34.34;100904.88;4164517;29;22217;-64
2022/08/07 09:14:35;;;;;;;3.43;0.70;;;;;;;22.12;36.13;100904.66;4184924;28;21794;-62
2022/08/07 09:17:25;;;;;;;2.57;0.60;;;;;;;22.42;33.46;100901.53;4156233;29;22913;-63
2022/08/07 09:20:24;;;;;;;1.03;0.50;;;;;;;22.57;33.19;100899.41;4176516;29;20727;-63
2022/08/07 09:23:11;;;;;;;1.93;0.70;;;;;;;22.18;32.22;100897.59;4161971;29;20955;-63
2022/08/07 09:26:17;;;;;;;3.47;0.50;;;;;;;22.13;33.33;100899.03;4164033;29;23055;-63
2022/08/07 09:28:52;;;;;;;2.60;0.70;;;;;;;22.28;35.18;100895.28;4153168;29;20250;-63
2022/08/07 09:31:48;;;;;;;1.93;0.60;;;;;;;22.48;34.51;100890.69;4163441;28;20242;-63
2022/08/07 09:34:21;;;;;;;3.07;0.80;;;;;;;22.43;35.33;100893.19;4164547;28;20457;-63
2022/08/07 09:37:13;;;;;;;2.50;0.80;;;;;;;22.03;36.14;100882.38;4156500;29;20242;-64
2022/08/07 09:39:49;;;;;;;3.00;0.73;;;;;;;22.07;35.30;100882.78;4144975;29;20270;-63
2022/08/07 09:42:45;;;;;;;1.50;0.60;;;;;;;21.49;35.29;100876.09;4162318;29;20242;-62
2022/08/07 09:45:43;;;;;;;2.30;0.60;;;;;;;21.40;35.77;100866.50;4158422;29;20326;-66
2022/08/07 09:48:48;;;;;;;8.10;2.77;;;;;;;21.58;36.03;100874.00;4174382;28;21821;-66
2022/08/07 09:51:54;;;;;;;2.50;0.80;;;;;;;21.38;35.68;100867.72;4167134;29;21177;-62
2022/08/07 09:54:52;;;;;;;2.30;0.73;;;;;;;21.37;36.26;100868.75;4173210;28;20670;-62
2022/08/07 09:57:23;;;;;;;5.27;0.70;;;;;;;21.28;36.83;100859.97;4163548;28;20847;-65
2022/08/07 10:00:10;;;;;;;1.20;0.70;;;;;;;21.28;37.36;100868.09;4162193;28;20313;-64
2022/08/07 10:02:54;;;;;;;3.30;0.77;;;;;;;21.34;36.36;100861.88;4168503;29;21064;-64
2022/08/07 10:05:50;;;;;;;4.43;0.80;;;;;;;21.24;36.65;100856.03;4149893;28;20243;-66
2022/08/07 10:08:45;;;;;;;2.50;0.60;;;;;;;21.42;36.37;100858.16;4158095;28;20242;-65
2022/08/07 10:11:43;;;;;;;1.97;0.93;;;;;;;21.39;36.95;100850.44;4161773;28;21735;-68
2022/08/07 10:14:56;;;;;;;2.67;0.70;;;;;;;21.41;36.82;100841.09;4156897;28;22070;-67
2022/08/07 10:17:42;;;;;;;1.67;0.70;;;;;;;21.25;37.58;100846.84;4160202;28;20238;-67
2022/08/07 10:21:10;;;;;;;6.70;0.90;;;;;;;21.32;35.60;100838.75;4185825;29;21190;-65
2022/08/07 10:24:30;;;;;;;0.63;0.50;;;;;;;21.25;36.10;100841.44;4143590;29;21500;-67
2022/08/07 10:27:27;;;;;;;2.83;0.70;;;;;;;21.13;35.44;100845.81;4174224;28;21057;-65
2022/08/07 10:30:15;;;;;;;2.80;0.77;;;;;;;20.99;35.73;100837.63;4151347;28;20283;-64
2022/08/07 10:33:27;;;;;;;3.80;0.53;;;;;;;21.23;35.34;100843.53;4158620;29;20231;-65
2022/08/07 10:36:31;;;;;;;3.80;0.80;;;;;;;21.74;35.57;100834.84;4161828;28;20310;-69
2022/08/07 10:39:25;;;;;;;4.37;0.60;;;;;;;21.66;33.77;100840.50;4150940;28;20246;-64
2022/08/07 10:42:27;;;;;;;4.27;0.70;;;;;;;21.65;36.18;100830.69;4158128;28;20277;-69
2022/08/07 10:45:15;;;;;;;2.30;0.80;;;;;;;21.48;35.25;100832.97;4175085;28;20414;-66
2022/08/07 10:47:48;;;;;;;4.03;0.80;;;;;;;21.58;34.35;100829.84;4150542;28;21819;-66
2022/08/07 10:50:31;;;;;;;3.60;0.73;;;;;;;21.40;35.67;100834.00;4150251;28;20250;-67
2022/08/07 10:53:04;;;;;;;1.83;0.60;;;;;;;21.25;34.43;100833.31;4156768;28;23284;-69
2022/08/07 10:55:49;;;;;;;3.17;0.97;;;;;;;20.95;37.13;100830.94;4160026;28;20262;-68
2022/08/07 10:58:37;;;;;;;1.43;0.50;;;;;;;20.77;36.82;100833.41;4159157;28;20246;-65
2022/08/07 11:01:18;;;;;;;1.30;0.70;;;;;;;20.85;35.67;100830.50;4150504;28;20241;-66
2022/08/07 11:04:00;;;;;;;1.03;0.53;;;;;;;20.99;35.27;100826.81;4146844;28;20412;-65
2022/08/07 11:07:02;;;;;;;1.40;0.50;;;;;;;20.85;35.50;100817.00;4171253;29;20300;-65
2022/08/07 11:09:46;;;;;;;2.67;0.70;;;;;;;21.10;34.77;100822.69;4157887;28;21771;-66
2022/08/07 11:12:41;;;;;;;2.53;0.70;;;;;;;21.37;35.22;100807.31;4170996;28;20234;-64
2022/08/07 11:15:23;;;;;;;1.83;0.60;;;;;;;21.41;37.26;100796.94;4172337;28;20952;-64
2022/08/07 11:18:14;;;;;;;3.67;0.70;;;;;;;21.52;36.52;100803.59;4165936;28;20242;-66
2022/08/07 11:21:05;;;;;;;4.17;0.50;;;;;;;21.38;38.09;100798.16;4167740;28;20492;-66
2022/08/07 11:23:46;;;;;;;1.57;0.73;;;;;;;21.54;34.13;100806.94;4180033;29;21032;-65
2022/08/07 11:26:24;;;;;;;6.00;0.60;;;;;;;21.60;33.77;100811.53;4158462;29;20237;-64
2022/08/07 11:28:57;;;;;;;1.87;0.83;;;;;;;21.41;33.70;100810.47;4172892;29;20241;-67
2022/08/07 11:31:44;;;;;;;3.93;1.00;;;;;;;21.48;33.67;100812.13;4181319;28;20241;-65
2022/08/07 11:34:18;;;;;;;5.93;1.40;;;;;;;21.49;35.00;100807.56;4155696;29;20592;-68
2022/08/07 11:37:05;;;;;;;2.97;0.83;;;;;;;21.50;36.53;100812.78;4165890;29;20246;-71
2022/08/07 11:39:47;;;;;;;1.40;0.53;;;;;;;21.67;33.41;100809.66;4189916;28;21675;-66
2022/08/07 11:42:45;;;;;;;5.77;1.13;;;;;;;21.80;32.86;100801.53;4210064;29;20241;-67
2022/08/07 11:45:27;;;;;;;3.37;1.60;;;;;;;21.85;32.55;100799.00;4204758;29;20235;-68
2022/08/07 11:48:29;;;;;;;1.50;0.60;;;;;;;21.93;35.21;100800.66;4170859;29;20241;-66
2022/08/07 11:51:08;;;;;;;2.90;0.80;;;;;;;22.17;32.68;100799.13;4229440;29;22838;-68
2022/08/07 11:53:51;;;;;;;3.27;0.90;;;;;;;22.36;33.54;100799.31;4199260;29;20429;-65
2022/08/07 11:56:50;;;;;;;2.23;0.90;;;;;;;22.60;32.03;100804.03;4232912;29;20243;-66
2022/08/07 11:59:36;;;;;;;4.13;1.50;;;;;;;22.57;31.18;100806.34;4209813;29;20278;-67
2022/08/07 12:02:33;;;;;;;3.57;1.03;;;;;;;22.53;31.59;100800.53;4213648;29;20242;-67
2022/08/07 12:05:31;;;;;;;2.30;0.87;;;;;;;22.60;30.30;100806.75;4271205;29;20278;-65
2022/08/07 12:08:21;;;;;;;2.83;1.27;;;;;;;22.57;30.70;100796.34;4218750;28;20712;-68
2022/08/07 12:11:03;;;;;;;2.20;0.80;;;;;;;22.69;28.98;100804.63;4231999;28;20231;-68
2022/08/07 12:14:00;;;;;;;2.47;0.80;;;;;;;22.93;29.47;100797.63;4178209;28;20247;-68
2022/08/07 12:16:30;;;;;;;2.67;0.83;;;;;;;23.03;29.25;100789.84;4212702;28;20250;-64
2022/08/07 12:19:21;;;;;;;3.17;0.70;;;;;;;23.02;29.66;100785.47;4178153;28;20322;-65
2022/08/07 12:22:19;;;;;;;1.77;0.70;;;;;;;23.16;30.24;100783.50;4170638;29;21200;-65
2022/08/07 12:28:43;;;;;;;3.20;0.90;;;;;;;23.11;31.84;100781.47;4210716;29;22123;-61
2022/08/07 12:31:16;;;;;;;1.70;0.83;;;;;;;22.81;32.39;100770.34;4162405;28;20239;-62